createdAt,value
2019-01-20T00:02:17.375Z,14.90
2019-01-20T00:04:47.410Z,14.90
2019-01-20T00:07:17.748Z,14.90
2019-01-20T00:09:48.067Z,14.90
2019-01-20T00:12:18.159Z,14.90
2019-01-20T00:14:48.548Z,14.90
2019-01-20T00:17:19.225Z,14.90
2019-01-20T00:19:50.266Z,14.80
2019-01-20T00:22:22.348Z,14.90
2019-01-20T00:24:52.374Z,15.00
2019-01-20T00:27:22.409Z,15.00
2019-01-20T00:29:52.557Z,15.00
2019-01-20T00:32:22.692Z,15.00
2019-01-20T00:34:52.867Z,14.90
2019-01-20T00:37:22.991Z,14.90
2019-01-20T00:39:53.102Z,14.90
2019-01-20T00:42:23.158Z,14.90
2019-01-20T00:44:53.287Z,14.90
2019-01-20T00:47:23.345Z,14.90
2019-01-20T00:49:53.459Z,14.80
2019-01-20T00:52:23.722Z,14.80
2019-01-20T00:54:53.850Z,14.80
2019-01-20T00:57:23.874Z,14.70
2019-01-20T00:59:54.009Z,14.60
2019-01-20T01:02:24.110Z,14.60
2019-01-20T01:04:54.346Z,14.60
2019-01-20T01:07:24.479Z,14.60
2019-01-20T01:09:54.783Z,14.60
2019-01-20T01:12:25.923Z,14.60
2019-01-20T01:14:56.166Z,14.70
2019-01-20T01:17:26.199Z,14.60
2019-01-20T01:19:56.316Z,14.60
2019-01-20T01:22:26.351Z,14.70
2019-01-20T01:24:56.470Z,14.70
2019-01-20T01:27:26.460Z,14.80
2019-01-20T01:29:56.494Z,14.70
2019-01-20T01:32:26.588Z,14.70
2019-01-20T01:34:56.701Z,14.70
2019-01-20T01:37:26.854Z,14.70
2019-01-20T01:39:56.906Z,14.70
2019-01-20T01:42:27.069Z,14.80
2019-01-20T01:44:57.225Z,14.80
2019-01-20T01:47:27.366Z,14.80
2019-01-20T01:49:57.434Z,14.80
2019-01-20T01:52:27.450Z,14.80
2019-01-20T01:54:57.504Z,14.90
2019-01-20T01:57:27.529Z,14.90
2019-01-20T01:59:57.567Z,15.00
2019-01-20T02:02:27.640Z,15.00
2019-01-20T02:04:57.677Z,15.00
2019-01-20T02:07:27.691Z,15.00
2019-01-20T02:09:57.794Z,15.00
2019-01-20T02:12:27.894Z,14.90
2019-01-20T02:14:57.959Z,14.90
2019-01-20T02:17:28.076Z,14.90
2019-01-20T02:19:58.103Z,14.80
2019-01-20T02:22:28.334Z,14.90
2019-01-20T02:24:58.352Z,14.90
2019-01-20T02:27:28.406Z,14.90
2019-01-20T02:29:58.542Z,14.90
2019-01-20T02:32:28.683Z,14.90
2019-01-20T02:34:58.862Z,14.90
2019-01-20T02:37:28.968Z,14.90
2019-01-20T02:39:59.246Z,15.00
2019-01-20T02:42:29.255Z,15.00
2019-01-20T02:44:59.387Z,15.00
2019-01-20T02:47:29.386Z,15.00
2019-01-20T02:49:59.478Z,15.10
2019-01-20T02:52:29.525Z,15.10
2019-01-20T02:54:59.559Z,15.10
2019-01-20T02:57:29.660Z,15.10
2019-01-20T02:59:59.733Z,15.20
2019-01-20T03:02:29.931Z,15.20
2019-01-20T03:04:59.987Z,15.20
2019-01-20T03:07:30.105Z,15.20
2019-01-20T03:10:00.256Z,15.10
2019-01-20T03:12:30.325Z,15.10
2019-01-20T03:15:00.333Z,15.10
2019-01-20T03:17:30.407Z,15.00
2019-01-20T03:20:00.519Z,15.00
2019-01-20T03:22:30.750Z,15.00
2019-01-20T03:25:00.747Z,15.00
2019-01-20T03:27:30.748Z,15.00
2019-01-20T03:30:00.772Z,15.00
2019-01-20T03:32:30.773Z,14.90
2019-01-20T03:35:00.782Z,14.90
2019-01-20T03:37:30.819Z,15.00
2019-01-20T03:40:00.818Z,15.00
2019-01-20T03:42:31.075Z,15.00
2019-01-20T03:45:01.134Z,14.90
2019-01-20T03:47:31.165Z,14.90
2019-01-20T03:50:01.166Z,14.90
2019-01-20T03:52:32.834Z,14.90
2019-01-20T03:55:03.039Z,15.00
2019-01-20T03:57:33.292Z,15.10
2019-01-20T04:00:03.538Z,15.00
2019-01-20T04:02:33.760Z,14.90
2019-01-20T04:05:03.846Z,14.90
2019-01-20T04:07:33.855Z,14.90
2019-01-20T04:10:03.916Z,14.80
2019-01-20T04:12:33.942Z,14.90
2019-01-20T04:15:04.161Z,14.90
2019-01-20T04:17:34.414Z,14.80
2019-01-20T04:20:04.645Z,14.80
2019-01-20T04:22:34.698Z,14.80
2019-01-20T04:25:05.653Z,14.80
2019-01-20T04:27:36.008Z,14.80
2019-01-20T04:30:07.064Z,14.80
2019-01-20T04:32:37.285Z,14.80
2019-01-20T04:35:07.975Z,14.70
2019-01-20T04:37:38.220Z,14.70
2019-01-20T04:40:10.960Z,14.80
2019-01-20T04:42:41.084Z,14.80
2019-01-20T04:45:12.187Z,14.90
2019-01-20T04:47:42.219Z,14.80
2019-01-20T04:50:14.673Z,14.80
2019-01-20T04:52:44.801Z,14.80
2019-01-20T04:55:15.866Z,14.80
2019-01-20T04:57:51.318Z,14.70
2019-01-20T05:00:23.594Z,14.70
2019-01-20T05:02:53.611Z,14.70
2019-01-20T05:05:23.603Z,14.70
2019-01-20T05:07:53.743Z,14.70
2019-01-20T05:10:23.843Z,14.70
2019-01-20T05:12:53.955Z,14.70
2019-01-20T05:15:25.430Z,14.60
2019-01-20T05:17:55.469Z,14.70
2019-01-20T05:20:25.472Z,14.60
2019-01-20T05:22:55.490Z,14.50
2019-01-20T05:25:25.653Z,14.50
2019-01-20T05:27:55.719Z,14.50
2019-01-20T05:30:26.759Z,14.50
2019-01-20T05:32:56.757Z,14.50
2019-01-20T05:35:26.940Z,14.50
2019-01-20T05:37:56.954Z,14.50
2019-01-20T05:40:27.026Z,14.40
2019-01-20T05:42:57.114Z,14.40
2019-01-20T05:45:27.479Z,14.50
2019-01-20T05:47:57.482Z,14.50
2019-01-20T05:50:27.551Z,14.40
2019-01-20T05:52:57.549Z,14.30
2019-01-20T05:55:27.596Z,14.30
2019-01-20T05:57:57.575Z,14.30
2019-01-20T06:00:30.123Z,14.30
2019-01-20T06:03:00.233Z,14.30
2019-01-20T06:05:30.356Z,14.20
2019-01-20T06:08:00.409Z,14.20
2019-01-20T06:10:30.422Z,14.30
2019-01-20T06:13:00.528Z,14.30
2019-01-20T06:15:30.577Z,14.30
2019-01-20T06:18:00.684Z,14.20
2019-01-20T06:20:30.830Z,14.30
2019-01-20T06:23:00.795Z,14.30
2019-01-20T06:25:30.857Z,14.30
2019-01-20T06:28:00.854Z,14.20
2019-01-20T06:30:32.898Z,14.30
2019-01-20T06:33:03.012Z,14.20
2019-01-20T06:35:33.172Z,14.30
2019-01-20T06:38:03.166Z,14.20
2019-01-20T06:40:33.183Z,14.20
2019-01-20T06:43:03.216Z,14.20
2019-01-20T06:45:33.234Z,14.20
2019-01-20T06:48:03.225Z,14.20
2019-01-20T06:50:33.370Z,14.20
2019-01-20T06:53:03.393Z,14.20
2019-01-20T06:55:33.543Z,14.20
2019-01-20T06:58:03.537Z,14.10
2019-01-20T07:00:33.630Z,14.10
2019-01-20T07:03:03.626Z,14.10
2019-01-20T07:05:33.651Z,14.10
2019-01-20T07:08:03.702Z,14.10
2019-01-20T07:10:33.722Z,14.10
2019-01-20T07:13:09.214Z,14.10
2019-01-20T07:15:35.526Z,14.10
2019-01-20T07:18:05.578Z,14.10
2019-01-20T07:20:35.713Z,14.20
2019-01-20T07:23:05.911Z,14.10
2019-01-20T07:25:36.055Z,14.20
2019-01-20T07:28:06.174Z,14.10
2019-01-20T07:30:36.213Z,14.10
2019-01-20T07:33:07.254Z,14.20
2019-01-20T07:35:37.291Z,14.20
2019-01-20T07:38:07.512Z,14.20
2019-01-20T07:40:37.522Z,14.20
2019-01-20T07:43:07.758Z,14.20
2019-01-20T07:45:37.873Z,14.20
2019-01-20T07:48:07.939Z,14.20
2019-01-20T07:50:38.094Z,14.10
2019-01-20T07:53:08.133Z,14.20
2019-01-20T07:55:38.166Z,14.20
2019-01-20T07:58:08.323Z,14.20
2019-01-20T08:00:39.667Z,14.20
2019-01-20T08:03:10.121Z,14.20
2019-01-20T08:05:40.492Z,14.20
2019-01-20T08:08:10.734Z,14.30
2019-01-20T08:10:49.193Z,14.30
2019-01-20T08:13:24.292Z,14.20
2019-01-20T08:15:51.321Z,14.40
2019-01-20T08:18:21.413Z,14.40
2019-01-20T08:20:51.438Z,14.40
2019-01-20T08:23:21.446Z,14.40
2019-01-20T08:25:51.475Z,14.40
2019-01-20T08:28:21.630Z,14.40
2019-01-20T08:30:51.628Z,14.40
2019-01-20T08:33:21.701Z,14.50
2019-01-20T08:35:51.812Z,14.40
2019-01-20T08:38:21.861Z,14.40
2019-01-20T08:40:51.986Z,14.40
2019-01-20T08:43:22.017Z,14.40
2019-01-20T08:46:24.558Z,14.40
2019-01-20T08:48:58.691Z,14.40
2019-01-20T08:51:28.933Z,14.40
2019-01-20T08:53:59.063Z,14.50
2019-01-20T08:56:29.249Z,14.50
2019-01-20T08:58:59.331Z,14.50
2019-01-20T09:01:29.557Z,14.50
2019-01-20T09:03:59.853Z,14.50
2019-01-20T09:06:30.012Z,14.60
2019-01-20T09:09:00.286Z,14.60
2019-01-20T09:11:30.479Z,14.70
2019-01-20T09:14:00.707Z,14.70
2019-01-20T09:16:31.977Z,14.70
2019-01-20T09:19:07.331Z,14.70
2019-01-20T09:21:37.637Z,14.80
2019-01-20T09:24:11.847Z,14.80
2019-01-20T09:26:42.232Z,14.80
2019-01-20T09:29:12.458Z,14.80
2019-01-20T09:31:42.557Z,14.80
2019-01-20T09:34:13.132Z,14.80
2019-01-20T09:36:43.908Z,14.80
2019-01-20T09:39:16.832Z,14.90
2019-01-20T09:41:52.505Z,15.00
2019-01-20T09:44:36.402Z,15.00
2019-01-20T09:47:06.767Z,15.00
2019-01-20T09:49:37.404Z,15.00
2019-01-20T09:52:07.697Z,15.00
2019-01-20T09:54:37.827Z,15.00
2019-01-20T09:57:07.971Z,14.90
2019-01-20T09:59:38.029Z,15.00
2019-01-20T10:02:08.379Z,14.90
2019-01-20T10:04:38.529Z,14.90
2019-01-20T10:07:08.924Z,14.90
2019-01-20T10:09:39.071Z,15.00
2019-01-20T10:12:09.284Z,15.00
2019-01-20T10:14:39.319Z,15.00
2019-01-20T10:17:09.605Z,15.00
2019-01-20T10:19:39.664Z,15.00
2019-01-20T10:22:09.700Z,15.00
2019-01-20T10:24:39.693Z,15.00
2019-01-20T10:27:09.827Z,15.00
2019-01-20T10:29:39.946Z,15.00
2019-01-20T10:32:10.136Z,15.10
2019-01-20T10:34:40.300Z,15.10
2019-01-20T10:37:10.737Z,15.20
2019-01-20T10:39:40.750Z,15.20
2019-01-20T10:42:10.785Z,15.20
2019-01-20T10:44:40.845Z,15.30
2019-01-20T10:47:11.125Z,15.30
2019-01-20T10:49:41.141Z,15.30
2019-01-20T10:52:11.394Z,15.40
2019-01-20T10:54:41.494Z,15.40
2019-01-20T10:57:11.660Z,15.50
2019-01-20T10:59:41.718Z,15.40
2019-01-20T11:02:11.965Z,15.50
2019-01-20T11:04:42.055Z,15.50
2019-01-20T11:07:13.379Z,15.60
2019-01-20T11:09:43.394Z,15.70
2019-01-20T11:12:13.462Z,15.80
2019-01-20T11:14:43.466Z,15.90
2019-01-20T11:17:13.626Z,16.00
2019-01-20T11:19:43.630Z,16.10
2019-01-20T11:22:14.807Z,16.10
2019-01-20T11:24:44.834Z,16.10
2019-01-20T11:27:14.953Z,16.10
2019-01-20T11:29:45.000Z,16.10
2019-01-20T11:32:14.992Z,16.10
2019-01-20T11:34:45.167Z,16.10
2019-01-20T11:37:15.180Z,16.10
2019-01-20T11:39:45.223Z,16.10
2019-01-20T11:42:15.326Z,16.20
2019-01-20T11:44:45.379Z,16.30
2019-01-20T11:47:15.439Z,16.40
2019-01-20T11:49:45.478Z,16.50
2019-01-20T11:52:15.606Z,16.40
2019-01-20T11:54:45.682Z,16.50
2019-01-20T11:57:15.810Z,16.50
2019-01-20T11:59:45.877Z,16.60
2019-01-20T12:02:22.258Z,16.70
2019-01-20T12:04:49.731Z,16.70
2019-01-20T12:07:20.043Z,16.80
2019-01-20T12:09:50.229Z,16.80
2019-01-20T12:12:20.336Z,16.80
2019-01-20T12:14:50.452Z,16.80
2019-01-20T12:17:20.456Z,16.80
2019-01-20T12:19:50.470Z,16.80
2019-01-20T12:22:20.510Z,16.80
2019-01-20T12:24:50.542Z,16.80
2019-01-20T12:27:20.588Z,16.80
2019-01-20T12:29:51.987Z,16.70
2019-01-20T12:32:22.155Z,16.80
2019-01-20T12:34:52.298Z,16.70
2019-01-20T12:37:22.326Z,16.50
2019-01-20T12:39:52.367Z,16.50
2019-01-20T12:42:22.451Z,16.50
2019-01-20T12:44:52.510Z,16.50
2019-01-20T12:47:22.659Z,16.40
2019-01-20T12:49:52.719Z,16.40
2019-01-20T12:52:22.883Z,16.30
2019-01-20T12:54:53.050Z,16.30
2019-01-20T12:57:23.274Z,16.30
2019-01-20T12:59:53.330Z,16.30
2019-01-20T13:02:23.636Z,16.30
2019-01-20T13:04:56.432Z,16.30
2019-01-20T13:07:25.550Z,16.30
2019-01-20T13:09:55.599Z,16.30
2019-01-20T13:12:26.899Z,16.40
2019-01-20T13:14:57.008Z,16.40
2019-01-20T13:17:30.263Z,16.40
2019-01-20T13:20:00.802Z,16.40
2019-01-20T13:22:30.935Z,16.30
2019-01-20T13:25:00.952Z,16.40
2019-01-20T13:27:33.189Z,16.40
2019-01-20T13:30:02.670Z,16.40
2019-01-20T13:32:36.341Z,16.40
2019-01-20T13:35:09.514Z,16.40
2019-01-20T13:37:41.238Z,16.40
2019-01-20T13:40:14.561Z,16.40
2019-01-20T13:42:45.963Z,16.40
2019-01-20T13:45:17.239Z,16.40
2019-01-20T13:47:48.886Z,16.40
2019-01-20T13:50:20.138Z,16.40
2019-01-20T13:52:50.465Z,16.40
2019-01-20T13:55:21.652Z,16.50
2019-01-20T13:57:51.990Z,16.60
2019-01-20T14:00:22.886Z,16.60
2019-01-20T14:02:54.707Z,16.70
2019-01-20T14:05:24.813Z,16.70
2019-01-20T14:07:55.469Z,16.70
2019-01-20T14:10:26.230Z,16.70
2019-01-20T14:12:56.829Z,16.80
2019-01-20T14:15:26.943Z,16.80
2019-01-20T14:17:57.221Z,16.80
2019-01-20T14:20:27.602Z,16.80
2019-01-20T14:22:57.929Z,16.80
2019-01-20T14:25:28.106Z,16.90
2019-01-20T14:27:58.547Z,16.90
2019-01-20T14:30:30.397Z,16.90
2019-01-20T14:33:02.302Z,17.00
2019-01-20T14:35:32.479Z,17.00
2019-01-20T14:38:02.819Z,17.00
2019-01-20T14:40:32.935Z,17.00
2019-01-20T14:43:03.247Z,17.00
2019-01-20T14:45:33.408Z,16.90
2019-01-20T14:48:03.466Z,17.00
2019-01-20T14:50:33.635Z,16.90
2019-01-20T14:53:05.179Z,16.90
2019-01-20T14:55:36.079Z,16.90
2019-01-20T14:58:06.588Z,16.90
2019-01-20T15:00:38.152Z,16.90
2019-01-20T15:03:09.158Z,16.90
2019-01-20T15:05:39.331Z,16.90
2019-01-20T15:08:10.090Z,16.90
2019-01-20T15:10:40.202Z,16.90
2019-01-20T15:13:10.448Z,16.90
2019-01-20T15:15:41.374Z,17.00
2019-01-20T15:18:11.661Z,16.90
2019-01-20T15:20:42.270Z,16.90
2019-01-20T15:23:12.485Z,16.90
2019-01-20T15:25:42.515Z,16.90
2019-01-20T15:28:12.542Z,16.90
2019-01-20T15:30:42.681Z,16.80
2019-01-20T15:33:12.811Z,16.80
2019-01-20T15:35:42.854Z,16.80
2019-01-20T15:38:13.009Z,16.80
2019-01-20T15:40:43.174Z,16.80
2019-01-20T15:43:13.191Z,16.80
2019-01-20T15:45:43.238Z,16.70
2019-01-20T15:48:13.349Z,16.70
2019-01-20T15:50:43.393Z,16.70
2019-01-20T15:53:13.510Z,16.60
2019-01-20T15:55:43.583Z,16.60
2019-01-20T15:58:13.598Z,16.60
2019-01-20T16:00:43.749Z,16.50
2019-01-20T16:03:13.797Z,16.50
2019-01-20T16:05:43.854Z,16.50
2019-01-20T16:08:13.860Z,16.40
2019-01-20T16:10:44.024Z,16.50
2019-01-20T16:13:14.127Z,16.40
2019-01-20T16:15:44.259Z,16.50
2019-01-20T16:18:14.673Z,16.40
2019-01-20T16:20:44.834Z,16.40
2019-01-20T16:23:14.844Z,16.40
2019-01-20T16:25:44.967Z,16.40
2019-01-20T16:28:15.244Z,16.40
2019-01-20T16:30:45.371Z,16.40
2019-01-20T16:33:15.351Z,16.40
2019-01-20T16:35:45.411Z,16.40
2019-01-20T16:38:15.469Z,16.40
2019-01-20T16:40:45.494Z,16.40
2019-01-20T16:43:15.717Z,16.40
2019-01-20T16:45:48.993Z,16.40
2019-01-20T16:48:18.960Z,16.40
2019-01-20T16:50:49.221Z,16.40
2019-01-20T16:53:19.270Z,16.40
2019-01-20T16:55:49.415Z,16.40
2019-01-20T16:58:19.550Z,16.40
2019-01-20T17:00:54.228Z,16.40
2019-01-20T17:03:24.295Z,16.40
2019-01-20T17:05:54.676Z,16.30
2019-01-20T17:08:24.822Z,16.30
2019-01-20T17:10:54.919Z,16.30
2019-01-20T17:13:25.063Z,16.30
2019-01-20T17:15:55.222Z,16.30
2019-01-20T17:18:25.308Z,16.30
2019-01-20T17:20:55.340Z,16.30
2019-01-20T17:23:25.624Z,16.20
2019-01-20T17:25:55.727Z,16.20
2019-01-20T17:28:25.782Z,16.20
2019-01-20T17:30:55.906Z,16.20
2019-01-20T17:33:26.085Z,16.30
2019-01-20T17:35:56.109Z,16.20
2019-01-20T17:38:26.259Z,16.30
2019-01-20T17:40:56.332Z,16.30
2019-01-20T17:43:26.345Z,16.30
2019-01-20T17:45:56.423Z,16.30
2019-01-20T17:48:26.494Z,16.20
2019-01-20T17:50:56.549Z,16.30
2019-01-20T17:53:26.752Z,16.30
2019-01-20T17:55:56.749Z,16.20
2019-01-20T17:58:26.914Z,16.30
2019-01-20T18:01:02.327Z,16.20
2019-01-20T18:03:32.618Z,16.20
2019-01-20T18:06:03.112Z,16.20
2019-01-20T18:08:33.127Z,16.20
2019-01-20T18:11:03.336Z,16.20
2019-01-20T18:13:33.412Z,16.20
2019-01-20T18:16:03.678Z,16.20
2019-01-20T18:18:33.870Z,16.20
2019-01-20T18:21:04.036Z,16.10
2019-01-20T18:23:34.251Z,16.10
2019-01-20T18:26:04.409Z,16.10
2019-01-20T18:28:34.474Z,16.10
2019-01-20T18:31:04.623Z,16.20
2019-01-20T18:33:34.778Z,16.10
2019-01-20T18:36:04.851Z,16.10
2019-01-20T18:38:34.935Z,16.10
2019-01-20T18:41:05.347Z,16.10
2019-01-20T18:43:35.441Z,16.10
2019-01-20T18:46:05.656Z,16.10
2019-01-20T18:48:35.859Z,16.10
2019-01-20T18:51:06.037Z,16.10
2019-01-20T18:53:38.490Z,16.10
2019-01-20T18:56:09.482Z,16.10
2019-01-20T18:58:39.718Z,16.10
2019-01-20T19:01:11.004Z,16.10
2019-01-20T19:03:41.493Z,16.10
2019-01-20T19:06:11.947Z,16.00
2019-01-20T19:08:42.071Z,16.00
2019-01-20T19:11:12.455Z,16.10
2019-01-20T19:13:42.707Z,16.10
2019-01-20T19:16:12.991Z,16.10
2019-01-20T19:18:43.236Z,16.00
2019-01-20T19:21:13.577Z,16.00
2019-01-20T19:23:43.944Z,16.00
2019-01-20T19:26:14.045Z,16.00
2019-01-20T19:28:44.122Z,16.00
2019-01-20T19:31:14.311Z,16.00
2019-01-20T19:33:44.425Z,15.90
2019-01-20T19:36:14.724Z,15.90
2019-01-20T19:38:45.036Z,15.90
2019-01-20T19:41:15.196Z,15.90
2019-01-20T19:43:45.508Z,15.90
2019-01-20T19:46:16.433Z,15.80
2019-01-20T19:48:46.740Z,15.80
2019-01-20T19:51:20.074Z,15.80
2019-01-20T19:53:59.983Z,15.80
2019-01-20T19:56:33.188Z,15.80
2019-01-20T19:59:18.993Z,15.80
2019-01-20T20:01:49.687Z,15.80
2019-01-20T20:04:19.903Z,15.80
2019-01-20T20:06:49.958Z,15.80
2019-01-20T20:09:19.985Z,15.70
2019-01-20T20:11:50.242Z,15.70
2019-01-20T20:14:20.303Z,15.70
2019-01-20T20:16:50.743Z,15.70
2019-01-20T20:19:20.967Z,15.70
2019-01-20T20:21:51.203Z,15.70
2019-01-20T20:24:25.435Z,15.70
2019-01-20T20:26:56.326Z,15.70
2019-01-20T20:29:26.441Z,15.70
2019-01-20T20:31:56.455Z,15.70
2019-01-20T20:34:28.023Z,15.70
2019-01-20T20:37:01.702Z,15.70
2019-01-20T20:39:31.742Z,15.70
2019-01-20T20:42:02.049Z,15.70
2019-01-20T20:44:32.103Z,15.70
2019-01-20T20:47:02.288Z,15.70
2019-01-20T20:49:35.295Z,15.70
2019-01-20T20:52:05.590Z,15.70
2019-01-20T20:54:37.553Z,15.70
2019-01-20T20:57:11.068Z,15.70
2019-01-20T20:59:41.213Z,15.60
2019-01-20T21:02:11.598Z,15.60
2019-01-20T21:04:41.859Z,15.60
2019-01-20T21:07:12.138Z,15.60
2019-01-20T21:09:42.234Z,15.60
2019-01-20T21:12:12.423Z,15.60
2019-01-20T21:14:42.498Z,15.60
2019-01-20T21:17:12.775Z,15.60
2019-01-20T21:19:42.919Z,15.60
2019-01-20T21:22:13.072Z,15.60
2019-01-20T21:24:43.226Z,15.70
2019-01-20T21:27:13.320Z,15.70
2019-01-20T21:29:43.378Z,15.70
2019-01-20T21:32:13.730Z,15.60
2019-01-20T21:34:43.765Z,15.60
2019-01-20T21:37:13.917Z,15.60
2019-01-20T21:39:43.955Z,15.60
2019-01-20T21:42:14.090Z,15.60
2019-01-20T21:44:44.265Z,15.60
2019-01-20T21:47:14.300Z,15.60
2019-01-20T21:49:44.344Z,15.60
2019-01-20T21:52:14.530Z,15.70
2019-01-20T21:54:44.583Z,15.70
2019-01-20T21:57:14.755Z,15.70
2019-01-20T21:59:44.873Z,15.70
2019-01-20T22:02:14.978Z,15.70
2019-01-20T22:04:45.067Z,15.60
2019-01-20T22:07:15.277Z,15.60
2019-01-20T22:09:45.343Z,15.60
2019-01-20T22:12:15.405Z,15.60
2019-01-20T22:14:45.467Z,15.60
2019-01-20T22:17:15.550Z,15.60
2019-01-20T22:19:45.613Z,15.70
2019-01-20T22:22:15.948Z,15.70
2019-01-20T22:24:45.990Z,15.70
2019-01-20T22:27:16.012Z,15.70
2019-01-20T22:29:46.179Z,15.70
2019-01-20T22:32:16.311Z,15.70
2019-01-20T22:34:46.366Z,15.70
2019-01-20T22:37:16.352Z,15.70
2019-01-20T22:39:46.519Z,15.60
2019-01-20T22:42:16.540Z,15.60
2019-01-20T22:44:46.585Z,15.60
2019-01-20T22:47:16.731Z,15.60
2019-01-20T22:49:46.771Z,15.60
2019-01-20T22:52:16.875Z,15.60
2019-01-20T22:54:46.910Z,15.60
2019-01-20T22:57:16.960Z,15.60
2019-01-20T22:59:46.992Z,15.60
2019-01-20T23:02:17.352Z,15.60
2019-01-20T23:04:47.415Z,15.60
2019-01-20T23:07:17.491Z,15.60
2019-01-20T23:09:47.647Z,15.60
2019-01-20T23:12:17.687Z,15.60
2019-01-20T23:14:47.704Z,15.60
2019-01-20T23:17:17.864Z,15.60
2019-01-20T23:19:48.025Z,15.60
2019-01-20T23:22:18.075Z,15.60
2019-01-20T23:24:48.086Z,15.60
2019-01-20T23:27:18.171Z,15.60
2019-01-20T23:29:48.211Z,15.60
2019-01-20T23:32:18.370Z,15.60
2019-01-20T23:34:48.405Z,15.60
2019-01-20T23:37:18.458Z,15.60
2019-01-20T23:39:48.539Z,15.60
2019-01-20T23:42:18.687Z,15.50
2019-01-20T23:44:48.828Z,15.50
2019-01-20T23:47:18.995Z,15.50
2019-01-20T23:49:49.155Z,15.50
2019-01-20T23:52:19.231Z,15.50
2019-01-20T23:54:49.273Z,15.50
2019-01-20T23:57:19.352Z,15.50
2019-01-20T23:59:49.394Z,15.50
